createdAt,value
2022-08-27T00:00:44.709Z,100308.25
2022-08-27T00:03:12.193Z,100307.16
2022-08-27T00:05:39.924Z,100306.16
2022-08-27T00:08:08.160Z,100307.50
2022-08-27T00:10:35.415Z,100303.94
2022-08-27T00:13:02.639Z,100301.06
2022-08-27T00:15:29.994Z,100299.78
2022-08-27T00:17:57.220Z,100295.91
2022-08-27T00:20:26.025Z,100306.38
2022-08-27T00:22:53.694Z,100306.16
2022-08-27T00:25:21.002Z,100300.47
2022-08-27T00:27:48.232Z,100294.84
2022-08-27T00:30:16.404Z,100291.13
2022-08-27T00:32:49.346Z,100287.41
2022-08-27T00:35:17.039Z,100283.97
2022-08-27T00:37:46.657Z,100290.25
2022-08-27T00:40:15.987Z,100280.44
2022-08-27T00:42:45.891Z,100281.19
2022-08-27T00:45:14.211Z,100282.84
2022-08-27T00:47:43.493Z,100281.56
2022-08-27T00:50:16.085Z,100290.47
2022-08-27T00:52:54.590Z,100286.09
2022-08-27T00:55:23.201Z,100287.94
2022-08-27T00:57:53.126Z,100285.50
2022-08-27T01:00:20.523Z,100284.84
2022-08-27T01:02:48.491Z,100283.78
2022-08-27T01:05:20.553Z,100280.22
2022-08-27T01:07:48.674Z,100287.13
2022-08-27T01:10:19.113Z,100280.59
2022-08-27T01:12:53.512Z,100290.53
2022-08-27T01:15:21.822Z,100300.72
2022-08-27T01:17:49.175Z,100294.88
2022-08-27T01:20:25.130Z,100297.09
2022-08-27T01:22:56.073Z,100288.56
2022-08-27T01:25:23.691Z,100294.72
2022-08-27T01:27:50.936Z,100294.34
2022-08-27T01:30:19.145Z,100294.19
2022-08-27T01:32:48.882Z,100295.91
2022-08-27T01:35:16.990Z,100291.47
2022-08-27T01:37:44.643Z,100293.75
2022-08-27T01:40:13.688Z,100298.94
2022-08-27T01:42:45.643Z,100295.84
2022-08-27T01:45:18.120Z,100296.41
2022-08-27T01:47:45.444Z,100291.41
2022-08-27T01:50:14.508Z,100294.63
2022-08-27T01:55:48.403Z,100296.13
2022-08-27T01:58:17.052Z,100299.44
2022-08-27T02:00:45.876Z,100301.28
2022-08-27T02:03:13.135Z,100298.47
2022-08-27T02:05:44.842Z,100307.38
2022-08-27T02:08:13.400Z,100304.56
2022-08-27T02:10:40.763Z,100308.28
2022-08-27T02:13:08.267Z,100302.97
2022-08-27T02:15:36.957Z,100301.28
2022-08-27T02:18:41.658Z,100303.16
2022-08-27T02:21:09.437Z,100311.81
2022-08-27T02:23:36.692Z,100304.94
2022-08-27T02:26:04.227Z,100304.97
2022-08-27T02:28:31.425Z,100309.84
2022-08-27T02:30:58.750Z,100301.38
2022-08-27T02:33:26.639Z,100311.06
2022-08-27T02:35:54.018Z,100302.00
2022-08-27T02:38:21.240Z,100301.38
2022-08-27T02:40:48.497Z,100294.34
2022-08-27T02:43:16.169Z,100308.94
2022-08-27T02:45:52.854Z,100308.69
2022-08-27T02:48:20.310Z,100305.72
2022-08-27T02:50:47.544Z,100308.31
2022-08-27T02:53:18.683Z,100320.13
2022-08-27T02:55:46.045Z,100311.72
2022-08-27T02:58:16.759Z,100309.91
2022-08-27T03:00:44.576Z,100309.53
2022-08-27T03:03:11.808Z,100308.75
2022-08-27T03:05:39.476Z,100302.78
2022-08-27T03:08:06.978Z,100311.00
2022-08-27T03:10:34.681Z,100306.00
2022-08-27T03:13:01.962Z,100310.16
2022-08-27T03:15:29.177Z,100301.47
2022-08-27T03:18:14.798Z,100301.38
2022-08-27T03:20:42.751Z,100308.72
2022-08-27T03:23:10.249Z,100297.69
2022-08-27T03:25:38.174Z,100300.41
2022-08-27T03:28:09.563Z,100292.91
2022-08-27T03:31:01.220Z,100288.72
2022-08-27T03:33:29.056Z,100293.47
2022-08-27T03:35:56.282Z,100296.44
2022-08-27T03:38:23.581Z,100290.72
2022-08-27T03:40:50.819Z,100290.84
2022-08-27T03:43:18.614Z,100289.81
2022-08-27T03:45:50.373Z,100292.22
2022-08-27T03:48:32.376Z,100290.56
2022-08-27T03:50:59.938Z,100293.41
2022-08-27T03:53:52.280Z,100281.78
2022-08-27T03:56:19.548Z,100287.91
2022-08-27T03:58:46.977Z,100283.06
2022-08-27T04:01:14.262Z,100278.41
2022-08-27T04:03:41.514Z,100278.56
2022-08-27T04:06:08.777Z,100282.16
2022-08-27T04:08:36.174Z,100279.13
2022-08-27T04:11:07.668Z,100276.56
2022-08-27T04:13:36.635Z,100278.06
2022-08-27T04:16:05.280Z,100276.84
2022-08-27T04:18:32.681Z,100270.53
2022-08-27T04:21:07.009Z,100270.31
2022-08-27T04:23:34.510Z,100280.00
2022-08-27T04:26:05.297Z,100279.72
2022-08-27T04:28:36.491Z,100275.25
2022-08-27T04:31:06.378Z,100277.28
2022-08-27T04:33:40.586Z,100271.44
2022-08-27T04:36:08.582Z,100274.56
2022-08-27T04:38:38.133Z,100279.84
2022-08-27T04:41:26.422Z,100273.28
2022-08-27T04:43:56.494Z,100283.91
2022-08-27T04:46:24.727Z,100283.91
2022-08-27T04:48:52.601Z,100287.22
2022-08-27T04:51:23.983Z,100293.00
2022-08-27T04:56:56.269Z,100299.50
2022-08-27T04:59:23.474Z,100293.97
2022-08-27T05:01:50.796Z,100291.91
2022-08-27T05:04:19.068Z,100289.19
2022-08-27T05:06:46.429Z,100289.00
2022-08-27T05:09:14.349Z,100287.34
2022-08-27T05:11:43.491Z,100280.91
2022-08-27T05:14:13.757Z,100276.06
2022-08-27T05:16:41.000Z,100286.56
2022-08-27T05:19:14.590Z,100281.63
2022-08-27T05:21:49.352Z,100291.34
2022-08-27T05:24:17.466Z,100295.59
2022-08-27T05:26:45.213Z,100300.56
2022-08-27T05:29:12.528Z,100304.78
2022-08-27T05:31:39.936Z,100316.34
2022-08-27T05:34:10.605Z,100308.97
2022-08-27T05:36:48.615Z,100318.31
2022-08-27T05:39:16.656Z,100312.22
2022-08-27T05:41:44.037Z,100307.63
2022-08-27T05:44:44.752Z,100306.81
2022-08-27T05:47:11.999Z,100317.44
2022-08-27T05:49:39.250Z,100317.78
2022-08-27T05:52:10.644Z,100313.94
2022-08-27T06:01:04.187Z,100326.13
2022-08-27T06:03:33.992Z,100336.97
2022-08-27T06:06:05.542Z,100335.34
2022-08-27T06:08:36.219Z,100327.34
2022-08-27T06:11:05.098Z,100329.41
2022-08-27T06:13:32.948Z,100324.78
2022-08-27T06:16:03.415Z,100330.13
2022-08-27T06:18:34.547Z,100338.19
2022-08-27T06:21:02.914Z,100331.47
2022-08-27T06:23:30.599Z,100336.19
2022-08-27T06:25:57.988Z,100349.06
2022-08-27T06:28:25.623Z,100361.50
2022-08-27T06:30:53.101Z,100378.00
2022-08-27T06:33:21.239Z,100377.53
2022-08-27T06:35:48.411Z,100382.91
2022-08-27T06:38:15.666Z,100383.88
2022-08-27T06:40:42.943Z,100386.03
2022-08-27T06:43:10.244Z,100388.66
2022-08-27T06:46:12.956Z,100372.16
2022-08-27T06:48:41.137Z,100372.66
2022-08-27T06:51:09.743Z,100359.91
2022-08-27T06:56:31.815Z,100364.41
2022-08-27T06:59:01.398Z,100368.53
2022-08-27T07:01:31.390Z,100379.00
2022-08-27T07:03:59.994Z,100382.78
2022-08-27T07:06:29.117Z,100387.09
2022-08-27T07:08:59.986Z,100382.16
2022-08-27T07:11:28.626Z,100368.75
2022-08-27T07:13:56.429Z,100372.84
2022-08-27T07:16:24.577Z,100373.91
2022-08-27T07:18:52.921Z,100371.75
2022-08-27T07:21:20.443Z,100368.31
2022-08-27T07:23:48.649Z,100373.44
2022-08-27T07:26:18.089Z,100382.59
2022-08-27T07:28:46.625Z,100379.19
2022-08-27T07:31:17.127Z,100376.69
2022-08-27T07:33:46.079Z,100374.00
2022-08-27T07:36:19.695Z,100370.78
2022-08-27T07:38:52.751Z,100363.31
2022-08-27T07:41:31.336Z,100359.59
2022-08-27T07:44:20.187Z,100357.75
2022-08-27T07:46:49.329Z,100352.38
2022-08-27T07:49:19.180Z,100353.69
2022-08-27T07:51:46.665Z,100357.31
2022-08-27T07:54:38.805Z,100366.13
2022-08-27T07:57:06.013Z,100374.25
2022-08-27T07:59:33.273Z,100378.94
2022-08-27T08:02:00.929Z,100376.69
2022-08-27T08:04:28.990Z,100380.03
2022-08-27T08:06:56.288Z,100375.25
2022-08-27T08:09:26.640Z,100359.91
2022-08-27T08:11:57.186Z,100364.13
2022-08-27T08:14:33.001Z,100368.34
2022-08-27T08:17:05.654Z,100384.91
2022-08-27T08:19:40.557Z,100379.09
2022-08-27T08:22:10.538Z,100391.25
2022-08-27T08:24:40.518Z,100398.47
2022-08-27T08:27:11.451Z,100397.28
2022-08-27T08:29:38.926Z,100402.81
2022-08-27T08:32:06.760Z,100413.88
2022-08-27T08:35:09.969Z,100396.41
2022-08-27T08:37:38.088Z,100404.47
2022-08-27T08:40:11.468Z,100415.16
2022-08-27T08:42:50.582Z,100407.41
2022-08-27T08:45:23.254Z,100423.78
2022-08-27T08:47:57.460Z,100425.00
2022-08-27T08:50:45.062Z,100424.47
2022-08-27T08:53:23.218Z,100434.66
2022-08-27T08:56:11.646Z,100447.41
2022-08-27T08:58:42.239Z,100453.09
2022-08-27T09:01:12.449Z,100466.63
2022-08-27T09:03:42.077Z,100466.31
2022-08-27T09:06:18.754Z,100467.44
2022-08-27T09:08:46.454Z,100478.47
2022-08-27T09:11:20.237Z,100472.19
2022-08-27T09:13:58.462Z,100480.34
2022-08-27T09:16:26.309Z,100489.69
2022-08-27T09:18:58.942Z,100506.66
2022-08-27T09:21:32.486Z,100519.88
2022-08-27T09:24:26.344Z,100542.38
2022-08-27T09:26:56.117Z,100550.84
2022-08-27T09:29:28.845Z,100551.31
2022-08-27T09:31:59.522Z,100558.31
2022-08-27T09:34:28.410Z,100551.63
2022-08-27T09:37:00.230Z,100554.25
2022-08-27T09:39:46.433Z,100566.69
2022-08-27T09:42:30.910Z,100575.88
2022-08-27T09:44:58.620Z,100589.66
2022-08-27T09:47:26.594Z,100606.94
2022-08-27T09:50:21.069Z,100613.91
2022-08-27T09:52:55.033Z,100626.53
2022-08-27T09:55:27.014Z,100612.53
2022-08-27T09:57:56.887Z,100615.16
2022-08-27T10:00:29.553Z,100618.69
2022-08-27T10:03:00.130Z,100623.56
2022-08-27T10:05:32.353Z,100613.34
2022-08-27T10:08:01.294Z,100582.47
2022-08-27T10:10:49.673Z,100593.69
2022-08-27T10:13:24.101Z,100590.31
2022-08-27T10:16:02.448Z,100588.03
2022-08-27T10:18:42.464Z,100592.84
2022-08-27T10:21:17.179Z,100578.69
2022-08-27T10:23:49.216Z,100593.00
2022-08-27T10:26:40.919Z,100578.56
2022-08-27T10:29:32.870Z,100556.81
2022-08-27T10:32:07.031Z,100556.66
2022-08-27T10:34:37.458Z,100560.13
2022-08-27T10:37:23.530Z,100556.47
2022-08-27T10:40:08.907Z,100564.53
2022-08-27T10:42:48.737Z,100558.13
2022-08-27T10:45:36.173Z,100550.63
2022-08-27T10:48:10.415Z,100539.31
2022-08-27T10:50:55.638Z,100532.41
2022-08-27T10:53:30.214Z,100521.25
2022-08-27T10:56:01.496Z,100538.56
2022-08-27T10:58:37.860Z,100550.97
2022-08-27T11:01:37.517Z,100572.28
2022-08-27T11:04:14.177Z,100568.22
2022-08-27T11:06:43.418Z,100576.97
2022-08-27T11:09:15.063Z,100577.22
2022-08-27T11:12:16.590Z,100573.63
2022-08-27T11:14:50.912Z,100557.63
2022-08-27T11:17:32.756Z,100559.06
2022-08-27T11:20:09.155Z,100568.59
2022-08-27T11:22:49.222Z,100582.25
2022-08-27T11:25:40.123Z,100600.25
2022-08-27T11:28:07.672Z,100609.88
2022-08-27T11:30:34.860Z,100608.63
2022-08-27T11:33:02.074Z,100611.22
2022-08-27T11:35:40.412Z,100600.66
2022-08-27T11:38:08.448Z,100598.59
2022-08-27T11:40:35.913Z,100591.78
2022-08-27T11:43:04.858Z,100591.13
2022-08-27T11:45:38.698Z,100569.69
2022-08-27T11:48:15.304Z,100576.31
2022-08-27T11:50:42.576Z,100569.31
2022-08-27T11:53:09.946Z,100557.63
2022-08-27T11:55:38.173Z,100550.03
2022-08-27T11:58:05.414Z,100537.56
2022-08-27T12:00:34.375Z,100525.25
2022-08-27T12:03:02.798Z,100525.69
2022-08-27T12:05:36.211Z,100516.84
2022-08-27T12:08:33.056Z,100522.69
2022-08-27T12:11:00.402Z,100512.13
2022-08-27T12:13:36.085Z,100504.66
2022-08-27T12:16:06.386Z,100503.06
2022-08-27T12:18:49.631Z,100500.31
2022-08-27T12:21:23.887Z,100511.44
2022-08-27T12:24:03.369Z,100511.25
2022-08-27T12:26:38.066Z,100516.34
2022-08-27T12:29:20.547Z,100516.13
2022-08-27T12:31:54.262Z,100525.84
2022-08-27T12:34:24.330Z,100531.00
2022-08-27T12:36:53.363Z,100532.00
2022-08-27T12:39:23.426Z,100522.75
2022-08-27T12:41:51.083Z,100520.34
2022-08-27T12:44:28.668Z,100525.16
2022-08-27T12:46:59.744Z,100533.28
2022-08-27T12:49:38.825Z,100521.84
2022-08-27T12:52:26.156Z,100510.19
2022-08-27T12:55:12.592Z,100503.28
2022-08-27T12:57:46.446Z,100494.50
2022-08-27T13:00:15.968Z,100497.38
2022-08-27T13:03:18.949Z,100487.72
2022-08-27T13:05:47.052Z,100488.72
2022-08-27T13:08:33.724Z,100484.94
2022-08-27T13:11:21.889Z,100490.34
2022-08-27T13:13:49.710Z,100493.25
2022-08-27T13:16:21.887Z,100496.56
2022-08-27T13:18:49.940Z,100491.75
2022-08-27T13:21:28.184Z,100482.22
2022-08-27T13:24:02.820Z,100477.50
2022-08-27T13:26:34.493Z,100472.06
2022-08-27T13:29:03.761Z,100468.78
2022-08-27T13:31:31.458Z,100460.06
2022-08-27T13:33:58.838Z,100450.25
2022-08-27T13:36:26.954Z,100449.03
2022-08-27T13:38:57.035Z,100440.72
2022-08-27T13:41:28.196Z,100432.03
2022-08-27T13:43:59.155Z,100439.72
2022-08-27T13:46:30.201Z,100423.97
2022-08-27T13:48:57.890Z,100427.50
2022-08-27T13:51:45.494Z,100421.97
2022-08-27T13:54:18.751Z,100431.75
2022-08-27T13:56:55.158Z,100427.94
2022-08-27T13:59:24.191Z,100420.00
2022-08-27T14:02:00.063Z,100421.44
2022-08-27T14:04:34.336Z,100421.38
2022-08-27T14:07:06.764Z,100414.03
2022-08-27T14:09:34.078Z,100401.66
2022-08-27T14:12:02.583Z,100398.53
2022-08-27T14:14:30.637Z,100395.94
2022-08-27T14:16:58.975Z,100403.50
2022-08-27T14:19:36.509Z,100404.72
2022-08-27T14:22:04.460Z,100404.41
2022-08-27T14:24:31.670Z,100411.81
2022-08-27T14:27:08.078Z,100411.91
2022-08-27T14:29:36.054Z,100418.41
2022-08-27T14:32:07.635Z,100409.88
2022-08-27T14:34:35.113Z,100411.91
2022-08-27T14:37:02.372Z,100419.81
2022-08-27T14:39:29.641Z,100417.75
2022-08-27T14:41:57.036Z,100426.19
2022-08-27T14:44:24.674Z,100432.31
2022-08-27T14:46:53.132Z,100430.75
2022-08-27T14:49:47.699Z,100431.75
2022-08-27T14:52:15.061Z,100435.84
2022-08-27T14:54:42.496Z,100435.44
2022-08-27T14:57:10.075Z,100433.16
2022-08-27T14:59:38.072Z,100438.38
2022-08-27T15:02:07.063Z,100419.97
2022-08-27T15:04:34.641Z,100434.69
2022-08-27T15:07:02.117Z,100440.75
2022-08-27T15:09:29.386Z,100439.56
2022-08-27T15:11:57.338Z,100444.00
2022-08-27T15:14:29.232Z,100441.69
2022-08-27T15:16:56.494Z,100440.28
2022-08-27T15:19:24.399Z,100439.78
2022-08-27T15:21:51.952Z,100437.38
2022-08-27T15:24:20.721Z,100440.09
2022-08-27T15:26:48.260Z,100427.16
2022-08-27T15:29:15.605Z,100430.56
2022-08-27T15:31:43.015Z,100435.66
2022-08-27T15:34:10.894Z,100427.44
2022-08-27T15:36:38.260Z,100425.75
2022-08-27T15:39:05.596Z,100420.78
2022-08-27T15:41:34.265Z,100429.09
2022-08-27T15:44:06.290Z,100418.41
2022-08-27T15:46:33.972Z,100413.22
2022-08-27T15:49:01.306Z,100408.59
2022-08-27T15:51:29.566Z,100400.88
2022-08-27T15:53:58.355Z,100399.00
2022-08-27T15:56:26.008Z,100402.13
2022-08-27T15:58:53.714Z,100406.00
2022-08-27T16:01:30.844Z,100402.53
2022-08-27T16:04:01.165Z,100408.28
2022-08-27T16:06:29.026Z,100396.06
2022-08-27T16:08:56.489Z,100390.00
2022-08-27T16:11:23.901Z,100392.75
2022-08-27T16:13:51.134Z,100387.81
2022-08-27T16:16:19.459Z,100395.19
2022-08-27T16:18:47.033Z,100395.56
2022-08-27T16:21:14.358Z,100404.28
2022-08-27T16:23:42.199Z,100407.75
2022-08-27T16:26:09.567Z,100407.34
2022-08-27T16:28:36.833Z,100400.56
2022-08-27T16:31:04.413Z,100410.06
2022-08-27T16:33:31.679Z,100412.53
2022-08-27T16:35:59.057Z,100416.91
2022-08-27T16:38:26.348Z,100420.50
2022-08-27T16:41:04.073Z,100428.19
2022-08-27T16:43:31.379Z,100420.81
2022-08-27T16:46:01.272Z,100421.22
2022-08-27T16:48:49.313Z,100420.09
2022-08-27T16:51:34.456Z,100420.56
2022-08-27T16:54:09.889Z,100425.69
2022-08-27T16:56:38.627Z,100434.91
2022-08-27T16:59:06.289Z,100433.31
2022-08-27T17:01:33.900Z,100438.53
2022-08-27T17:04:14.795Z,100445.66
2022-08-27T17:06:45.682Z,100447.47
2022-08-27T17:09:12.989Z,100452.63
2022-08-27T17:11:41.943Z,100455.88
2022-08-27T17:14:10.748Z,100466.63
2022-08-27T17:16:38.877Z,100465.72
2022-08-27T17:19:06.452Z,100464.09
2022-08-27T17:21:33.698Z,100470.31
2022-08-27T17:24:04.622Z,100464.56
2022-08-27T17:26:38.349Z,100476.03
2022-08-27T17:29:05.630Z,100478.78
2022-08-27T17:31:34.060Z,100477.78
2022-08-27T17:34:01.561Z,100475.59
2022-08-27T17:36:29.565Z,100473.06
2022-08-27T17:38:57.117Z,100466.84
2022-08-27T17:41:31.782Z,100474.19
2022-08-27T17:44:19.951Z,100487.75
2022-08-27T17:46:47.596Z,100493.38
2022-08-27T17:49:16.888Z,100501.19
2022-08-27T17:51:48.484Z,100497.63
2022-08-27T17:54:29.833Z,100492.47
2022-08-27T17:56:58.603Z,100491.19
2022-08-27T17:59:25.902Z,100486.97
2022-08-27T18:02:55.059Z,100476.88
2022-08-27T18:06:36.984Z,100482.44
2022-08-27T18:10:02.677Z,100480.81
2022-08-27T18:13:30.397Z,100483.41
2022-08-27T18:20:37.007Z,100485.22
2022-08-27T18:23:09.518Z,100488.22
2022-08-27T18:25:37.147Z,100487.06
2022-08-27T18:28:10.201Z,100490.22
2022-08-27T18:30:39.670Z,100492.28
2022-08-27T18:33:07.565Z,100492.63
2022-08-27T18:35:37.839Z,100490.09
2022-08-27T18:38:06.260Z,100496.47
2022-08-27T18:40:44.333Z,100485.94
2022-08-27T18:43:11.910Z,100492.56
2022-08-27T18:45:39.563Z,100490.94
2022-08-27T18:48:21.426Z,100499.56
2022-08-27T18:50:58.695Z,100491.00
2022-08-27T18:53:26.905Z,100499.44
2022-08-27T18:55:55.944Z,100496.69
2022-08-27T18:58:24.160Z,100500.50
2022-08-27T19:00:52.223Z,100508.63
2022-08-27T19:03:21.961Z,100517.34
2022-08-27T19:06:00.775Z,100508.66
2022-08-27T19:08:30.534Z,100511.06
2022-08-27T19:11:01.212Z,100515.09
2022-08-27T19:13:28.529Z,100520.84
2022-08-27T19:16:00.405Z,100515.28
2022-08-27T19:18:28.315Z,100518.72
2022-08-27T19:20:55.564Z,100518.13
2022-08-27T19:23:23.213Z,100511.41
2022-08-27T19:25:50.893Z,100518.28
2022-08-27T19:28:18.980Z,100521.72
2022-08-27T19:30:46.247Z,100523.09
2022-08-27T19:33:13.551Z,100522.97
2022-08-27T19:35:41.344Z,100531.47
2022-08-27T19:38:10.441Z,100538.59
2022-08-27T19:40:37.812Z,100533.88
2022-08-27T19:43:05.308Z,100541.22
2022-08-27T19:45:33.061Z,100538.81
2022-08-27T19:48:00.323Z,100554.97
2022-08-27T19:50:27.549Z,100546.63
2022-08-27T19:52:54.877Z,100544.22
2022-08-27T19:55:22.167Z,100539.16
2022-08-27T19:57:49.543Z,100549.69
2022-08-27T20:00:19.047Z,100549.91
2022-08-27T20:02:46.325Z,100551.03
2022-08-27T20:05:18.429Z,100547.28
2022-08-27T20:07:50.155Z,100549.47
2022-08-27T20:10:18.274Z,100554.88
2022-08-27T20:12:45.478Z,100549.38
2022-08-27T20:15:12.735Z,100551.19
2022-08-27T20:17:43.675Z,100552.22
2022-08-27T20:20:11.355Z,100552.00
2022-08-27T20:22:39.870Z,100553.53
2022-08-27T20:25:07.473Z,100562.88
2022-08-27T20:27:34.967Z,100558.91
2022-08-27T20:30:04.654Z,100550.91
2022-08-27T20:32:31.962Z,100564.53
2022-08-27T20:34:59.192Z,100555.56
2022-08-27T20:37:26.388Z,100561.03
2022-08-27T20:39:53.829Z,100561.09
2022-08-27T20:42:22.235Z,100559.19
2022-08-27T20:44:49.866Z,100551.28
2022-08-27T20:47:17.420Z,100558.91
2022-08-27T20:49:44.935Z,100559.03
2022-08-27T20:52:12.977Z,100562.22
2022-08-27T20:54:45.920Z,100566.78
2022-08-27T20:57:13.220Z,100565.28
2022-08-27T20:59:59.328Z,100570.47
2022-08-27T21:02:27.574Z,100564.31
2022-08-27T21:04:54.894Z,100571.41
2022-08-27T21:07:23.120Z,100570.72
2022-08-27T21:09:55.527Z,100581.03
2022-08-27T21:12:27.880Z,100578.66
2022-08-27T21:14:56.158Z,100577.63
2022-08-27T21:17:27.154Z,100587.72
2022-08-27T21:19:54.472Z,100583.81
2022-08-27T21:22:22.218Z,100584.47
2022-08-27T21:24:49.604Z,100587.94
2022-08-27T21:27:17.519Z,100582.50
2022-08-27T21:29:45.107Z,100578.44
2022-08-27T21:32:13.061Z,100583.09
2022-08-27T21:34:41.751Z,100587.72
2022-08-27T21:37:10.514Z,100586.50
2022-08-27T21:39:38.297Z,100597.25
2022-08-27T21:42:05.631Z,100593.38
2022-08-27T21:44:36.006Z,100592.94
2022-08-27T21:47:03.921Z,100594.13
2022-08-27T21:49:34.204Z,100587.47
2022-08-27T21:52:03.544Z,100594.38
2022-08-27T21:54:31.564Z,100590.75
2022-08-27T21:56:58.844Z,100597.88
2022-08-27T21:59:26.328Z,100593.94
2022-08-27T22:02:00.562Z,100597.72
2022-08-27T22:04:30.760Z,100592.31
2022-08-27T22:06:59.392Z,100602.41
2022-08-27T22:09:27.248Z,100597.13
2022-08-27T22:11:54.910Z,100600.75
2022-08-27T22:14:22.298Z,100603.53
2022-08-27T22:16:50.164Z,100594.78
2022-08-27T22:19:17.380Z,100604.81
2022-08-27T22:21:44.849Z,100602.97
2022-08-27T22:24:12.236Z,100609.44
2022-08-27T22:26:39.826Z,100606.97
2022-08-27T22:29:08.192Z,100607.13
2022-08-27T22:31:35.778Z,100602.13
2022-08-27T22:34:03.142Z,100608.34
2022-08-27T22:36:31.297Z,100603.75
2022-08-27T22:39:03.766Z,100605.38
2022-08-27T22:41:32.440Z,100602.63
2022-08-27T22:44:00.071Z,100608.22
2022-08-27T22:46:29.393Z,100604.31
2022-08-27T22:48:56.712Z,100599.28
2022-08-27T22:51:24.060Z,100591.16
2022-08-27T22:54:11.542Z,100598.63
2022-08-27T22:56:39.031Z,100597.84
2022-08-27T22:59:07.372Z,100597.63
2022-08-27T23:01:36.290Z,100591.88
2022-08-27T23:04:04.211Z,100586.41
2022-08-27T23:06:31.645Z,100586.41
2022-08-27T23:08:58.871Z,100585.03
2022-08-27T23:11:26.225Z,100581.72
2022-08-27T23:13:53.511Z,100578.22
2022-08-27T23:16:20.847Z,100570.41
2022-08-27T23:18:48.081Z,100580.63
2022-08-27T23:21:15.347Z,100581.00
2022-08-27T23:23:42.557Z,100584.63
2022-08-27T23:26:28.180Z,100575.00
2022-08-27T23:28:56.346Z,100575.47
2022-08-27T23:31:26.035Z,100576.63
2022-08-27T23:33:56.094Z,100581.13
2022-08-27T23:36:23.450Z,100581.91
2022-08-27T23:38:52.333Z,100584.09
2022-08-27T23:41:20.235Z,100581.25
2022-08-27T23:43:47.533Z,100585.72
2022-08-27T23:46:14.782Z,100587.03
2022-08-27T23:48:42.172Z,100579.63
2022-08-27T23:51:09.554Z,100580.38
2022-08-27T23:53:37.295Z,100582.94
2022-08-27T23:56:05.067Z,100573.91
2022-08-27T23:58:32.763Z,100586.88
